createdAt,value
2018-08-17T00:00:11.724Z,67.90
2018-08-17T00:08:38.507Z,68.20
2018-08-17T00:11:07.041Z,68.10
2018-08-17T00:13:50.392Z,68.10
2018-08-17T00:16:18.918Z,68.30
2018-08-17T00:18:47.639Z,68.70
2018-08-17T00:21:16.254Z,68.50
2018-08-17T00:23:47.063Z,68.60
2018-08-17T00:26:18.899Z,69.00
2018-08-17T00:28:47.679Z,68.70
2018-08-17T00:31:16.198Z,68.70
2018-08-17T00:33:45.042Z,68.70
2018-08-17T00:36:13.681Z,68.60
2018-08-17T00:38:42.455Z,69.10
2018-08-17T00:44:03.056Z,69.00
2018-08-17T00:46:31.613Z,69.00
2018-08-17T00:54:47.893Z,69.10
2018-08-17T00:57:16.578Z,69.00
2018-08-17T00:59:45.346Z,69.20
2018-08-17T01:02:20.004Z,69.30
2018-08-17T01:04:49.955Z,69.40
2018-08-17T01:10:09.623Z,69.40
2018-08-17T01:12:38.219Z,69.40
2018-08-17T01:15:09.304Z,69.60
2018-08-17T01:17:37.812Z,69.80
2018-08-17T01:20:10.078Z,70.10
2018-08-17T01:22:39.085Z,70.20
2018-08-17T01:25:07.768Z,69.80
2018-08-17T01:27:36.401Z,70.00
2018-08-17T01:30:06.162Z,69.90
2018-08-17T01:32:38.481Z,69.80
2018-08-17T01:35:07.382Z,69.80
2018-08-17T01:37:35.866Z,69.90
2018-08-17T01:40:04.734Z,70.00
2018-08-17T01:42:37.304Z,70.00
2018-08-17T01:45:06.332Z,70.00
2018-08-17T01:47:35.913Z,70.20
2018-08-17T01:50:21.648Z,70.60
2018-08-17T01:52:57.086Z,70.30
2018-08-17T01:55:29.752Z,70.50
2018-08-17T01:57:58.211Z,70.30
2018-08-17T02:00:28.901Z,70.50
2018-08-17T02:02:57.421Z,70.50
2018-08-17T02:05:31.933Z,71.10
2018-08-17T02:08:04.579Z,70.80
2018-08-17T02:10:34.553Z,70.80
2018-08-17T02:13:03.297Z,70.70
2018-08-17T02:15:31.892Z,70.80
2018-08-17T02:18:04.228Z,70.90
2018-08-17T02:20:33.026Z,70.70
2018-08-17T02:23:02.846Z,70.80
2018-08-17T02:25:33.440Z,70.70
2018-08-17T02:28:03.853Z,70.90
2018-08-17T02:30:44.100Z,70.70
2018-08-17T02:33:12.821Z,70.90
2018-08-17T02:35:41.478Z,71.00
2018-08-17T02:38:11.826Z,70.90
2018-08-17T02:43:28.484Z,71.00
2018-08-17T02:45:57.036Z,71.10
2018-08-17T02:48:28.075Z,71.00
2018-08-17T02:50:56.637Z,71.00
2018-08-17T02:53:37.620Z,70.90
2018-08-17T02:56:06.540Z,70.90
2018-08-17T02:58:55.157Z,70.90
2018-08-17T03:01:23.803Z,71.10
2018-08-17T03:04:01.861Z,71.10
2018-08-17T03:06:30.356Z,71.10
2018-08-17T03:08:59.918Z,71.10
2018-08-17T03:11:29.162Z,71.30
2018-08-17T03:14:01.580Z,71.70
2018-08-17T03:16:36.200Z,71.50
2018-08-17T03:19:06.956Z,71.30
2018-08-17T03:21:35.586Z,71.50
2018-08-17T03:24:04.514Z,71.60
2018-08-17T03:26:32.963Z,71.40
2018-08-17T03:29:06.316Z,71.50
2018-08-17T03:31:42.829Z,71.50
2018-08-17T04:41:15.316Z,71.60
2018-08-17T04:43:43.847Z,74.40
2018-08-17T04:46:13.886Z,74.70
2018-08-17T04:48:43.138Z,74.50
2018-08-17T04:51:16.508Z,74.80
2018-08-17T04:53:48.469Z,74.70
2018-08-17T04:56:17.106Z,74.70
2018-08-17T04:58:50.937Z,74.80
2018-08-17T05:01:19.434Z,74.80
2018-08-17T05:03:47.952Z,74.70
2018-08-17T05:09:22.802Z,75.00
2018-08-17T05:11:51.208Z,75.10
2018-08-17T05:14:25.909Z,75.40
2018-08-17T05:16:54.337Z,75.10
2018-08-17T05:19:22.861Z,75.30
2018-08-17T05:22:11.968Z,75.10
2018-08-17T05:24:42.006Z,75.50
2018-08-17T05:27:10.472Z,75.30
2018-08-17T05:29:41.591Z,75.30
2018-08-17T05:32:11.314Z,75.30
2018-08-17T05:34:39.798Z,75.10
2018-08-17T05:37:13.284Z,75.80
2018-08-17T05:39:47.375Z,75.30
2018-08-17T05:44:59.171Z,75.80
2018-08-17T05:47:30.058Z,75.80
2018-08-17T05:50:10.655Z,76.20
2018-08-17T05:52:45.661Z,75.80
2018-08-17T05:55:29.914Z,75.40
2018-08-17T05:58:04.004Z,75.50
2018-08-17T06:00:41.132Z,75.60
2018-08-17T06:03:16.690Z,75.60
2018-08-17T06:05:45.214Z,75.10
2018-08-17T06:08:13.822Z,75.70
2018-08-17T06:10:42.381Z,75.30
2018-08-17T06:13:10.824Z,75.10
2018-08-17T06:15:46.075Z,75.30
2018-08-17T06:44:51.840Z,75.50
2018-08-17T06:47:22.861Z,75.40
2018-08-17T06:49:58.152Z,75.00
2018-08-17T06:52:26.733Z,75.40
2018-08-17T06:55:09.989Z,76.00
2018-08-17T06:57:39.181Z,76.20
2018-08-17T07:14:52.946Z,76.70
2018-08-17T07:17:22.874Z,77.20
2018-08-17T07:19:53.258Z,77.10
2018-08-17T07:22:27.775Z,77.50
2018-08-17T07:25:04.057Z,77.10
2018-08-17T07:27:33.883Z,77.60
2018-08-17T07:30:03.520Z,77.40
2018-08-17T07:32:33.279Z,77.70
2018-08-17T07:35:07.255Z,78.20
2018-08-17T07:37:35.838Z,78.10
2018-08-17T07:40:10.730Z,78.30
2018-08-17T07:42:39.722Z,78.80
2018-08-17T07:45:08.249Z,78.70
2018-08-17T07:47:36.979Z,79.40
2018-08-17T08:21:56.795Z,78.60
2018-08-17T08:24:25.449Z,78.60
2018-08-17T08:26:56.912Z,79.00
2018-08-17T08:29:25.497Z,78.50
2018-08-17T08:31:54.063Z,78.30
2018-08-17T08:34:24.503Z,78.20
2018-08-17T08:36:53.076Z,78.10
2018-08-17T08:39:21.513Z,78.10
2018-08-17T08:41:50.426Z,77.90
2018-08-17T08:44:19.942Z,77.80
2018-08-17T08:46:48.401Z,77.80
2018-08-17T08:52:09.666Z,77.60
2018-08-17T08:54:39.391Z,77.50
2018-08-17T08:57:09.024Z,77.30
2018-08-17T08:59:38.063Z,77.30
2018-08-17T09:02:06.714Z,77.40
2018-08-17T09:04:36.686Z,77.30
2018-08-17T09:07:05.214Z,77.70
2018-08-17T09:09:33.962Z,77.50
2018-08-17T09:12:02.571Z,77.60
2018-08-17T09:14:33.691Z,77.60
2018-08-17T09:17:02.517Z,77.50
2018-08-17T09:19:36.907Z,77.70
2018-08-17T09:22:05.466Z,77.50
2018-08-17T09:24:34.046Z,77.50
2018-08-17T09:27:02.542Z,77.40
2018-08-17T09:29:30.997Z,77.40
2018-08-17T09:32:00.129Z,77.20
2018-08-17T09:34:29.435Z,77.00
2018-08-17T09:37:10.842Z,77.00
2018-08-17T09:39:39.204Z,77.00
2018-08-17T09:42:07.751Z,77.00
2018-08-17T09:44:36.038Z,76.90
2018-08-17T09:47:04.469Z,76.90
2018-08-17T09:52:23.631Z,76.80
2018-08-17T09:54:52.203Z,76.90
2018-08-17T09:57:20.809Z,77.20
2018-08-17T09:59:49.434Z,77.00
2018-08-17T10:02:23.279Z,77.20
2018-08-17T10:04:57.161Z,77.40
2018-08-17T10:24:47.392Z,76.80
2018-08-17T10:27:16.073Z,77.20
2018-08-17T10:29:44.744Z,76.70
2018-08-17T10:41:17.991Z,76.40
2018-08-17T10:43:47.318Z,77.00
2018-08-17T10:46:15.902Z,76.10
2018-08-17T10:48:44.494Z,76.10
2018-08-17T10:51:16.257Z,76.00
2018-08-17T10:53:47.349Z,75.90
2018-08-17T10:56:16.829Z,75.50
2018-08-17T10:58:45.453Z,76.30
2018-08-17T11:01:13.930Z,75.60
2018-08-17T11:03:43.037Z,76.00
2018-08-17T11:06:12.585Z,76.10
2018-08-17T11:08:41.142Z,76.20
2018-08-17T11:11:09.739Z,76.60
2018-08-17T11:13:43.818Z,76.30
2018-08-17T11:16:12.553Z,76.60
2018-08-17T11:18:41.033Z,76.50
2018-08-17T11:21:09.503Z,76.40
2018-08-17T11:23:37.952Z,76.10
2018-08-17T11:26:06.571Z,75.90
2018-08-17T11:28:35.057Z,75.80
2018-08-17T11:31:03.622Z,76.00
2018-08-17T11:33:32.219Z,75.90
2018-08-17T11:36:00.758Z,75.70
2018-08-17T11:38:29.273Z,75.60
2018-08-17T11:40:57.714Z,75.20
2018-08-17T11:43:26.300Z,75.10
2018-08-17T11:45:55.079Z,74.90
2018-08-17T11:48:35.060Z,74.70
2018-08-17T11:51:03.504Z,74.70
2018-08-17T11:53:32.059Z,74.60
2018-08-17T11:56:01.102Z,74.40
2018-08-17T11:58:29.618Z,74.30
2018-08-17T12:00:57.995Z,74.40
2018-08-17T12:03:26.358Z,74.40
2018-08-17T12:05:55.053Z,74.20
2018-08-17T12:08:24.489Z,74.00
2018-08-17T12:11:03.247Z,73.90
2018-08-17T12:13:31.845Z,73.70
2018-08-17T12:16:00.343Z,73.20
2018-08-17T12:18:28.814Z,73.50
2018-08-17T12:20:57.264Z,73.70
2018-08-17T12:23:36.259Z,73.50
2018-08-17T12:26:04.749Z,73.50
2018-08-17T12:28:33.884Z,73.20
2018-08-17T12:31:03.187Z,72.80
2018-08-17T12:33:31.713Z,72.60
2018-08-17T12:36:02.802Z,72.40
2018-08-17T12:38:31.265Z,72.50
2018-08-17T12:40:59.721Z,72.20
2018-08-17T12:43:35.867Z,72.20
2018-08-17T12:46:04.365Z,72.20
2018-08-17T12:48:32.870Z,72.10
2018-08-17T12:51:03.841Z,72.00
2018-08-17T12:53:32.318Z,71.90
2018-08-17T12:56:00.838Z,71.50
2018-08-17T12:58:29.225Z,71.50
2018-08-17T13:09:11.606Z,71.10
2018-08-17T13:11:45.356Z,71.20
2018-08-17T13:14:14.077Z,71.50
2018-08-17T13:16:44.391Z,71.90
2018-08-17T13:19:15.330Z,71.80
2018-08-17T13:21:45.338Z,72.20
2018-08-17T13:24:14.066Z,72.20
2018-08-17T13:26:42.759Z,72.50
2018-08-17T13:29:12.703Z,72.30
2018-08-17T13:40:27.073Z,72.30
2018-08-17T13:42:55.608Z,72.50
2018-08-17T13:45:24.311Z,72.30
2018-08-17T13:53:51.531Z,72.40
2018-08-17T13:56:19.902Z,72.10
2018-08-17T13:58:48.385Z,72.10
2018-08-17T14:01:16.849Z,72.40
2018-08-17T14:03:45.220Z,72.00
2018-08-17T14:06:39.990Z,72.00
2018-08-17T14:09:10.024Z,71.80
2018-08-17T14:11:38.454Z,71.40
2018-08-17T14:14:07.613Z,72.40
2018-08-17T14:16:37.920Z,71.20
2018-08-17T14:19:08.014Z,71.20
2018-08-17T14:21:36.609Z,71.50
2018-08-17T14:26:56.171Z,70.40
2018-08-17T14:29:25.771Z,70.80
2018-08-17T14:31:54.189Z,71.60
2018-08-17T14:34:22.744Z,70.90
2018-08-17T14:36:51.197Z,70.60
2018-08-17T14:45:01.130Z,70.40
2018-08-17T14:47:47.182Z,69.60
2018-08-17T14:50:15.983Z,69.40
2018-08-17T14:52:44.505Z,69.20
2018-08-17T14:55:14.510Z,68.80
2018-08-17T15:00:45.789Z,68.70
2018-08-17T15:03:14.301Z,68.30
2018-08-17T15:08:46.466Z,68.30
2018-08-17T15:11:15.148Z,68.10
2018-08-17T15:16:50.624Z,68.20
2018-08-17T15:19:19.023Z,67.50
2018-08-17T15:21:47.549Z,68.00
2018-08-17T15:24:15.971Z,68.50
2018-08-17T15:26:44.374Z,68.80
2018-08-17T15:29:13.094Z,68.60
2018-08-17T15:31:41.611Z,68.50
2018-08-17T15:34:10.056Z,68.70
2018-08-17T15:36:38.638Z,69.10
2018-08-17T15:39:13.577Z,68.30
2018-08-17T15:41:43.412Z,68.80
2018-08-17T15:44:16.818Z,68.70
2018-08-17T15:46:45.357Z,68.50
2018-08-17T15:49:18.880Z,68.40
2018-08-17T15:51:47.635Z,68.10
2018-08-17T15:54:16.031Z,68.00
2018-08-17T15:56:44.396Z,67.80
2018-08-17T15:59:32.823Z,66.70
2018-08-17T16:02:01.244Z,66.90
2018-08-17T16:04:29.640Z,66.20
2018-08-17T16:06:58.181Z,66.50
2018-08-17T16:09:26.578Z,66.50
2018-08-17T16:11:55.041Z,66.50
2018-08-17T16:14:23.415Z,65.40
2018-08-17T16:19:42.369Z,66.10
2018-08-17T16:22:10.825Z,64.50
2018-08-17T16:24:39.358Z,66.40
2018-08-17T16:29:58.025Z,65.70
2018-08-17T16:32:26.745Z,65.20
2018-08-17T16:34:55.062Z,66.00
2018-08-17T16:37:23.385Z,64.40
2018-08-17T16:39:55.494Z,64.60
2018-08-17T16:42:28.187Z,65.10
2018-08-17T16:45:04.165Z,64.60
2018-08-17T16:47:32.570Z,65.30
2018-08-17T16:50:03.028Z,65.10
2018-08-17T16:52:36.510Z,65.30
2018-08-17T16:55:05.302Z,64.60
2018-08-17T16:57:33.589Z,65.20
2018-08-17T17:00:02.056Z,64.70
2018-08-17T17:02:30.314Z,65.20
2018-08-17T17:04:58.684Z,65.30
2018-08-17T17:07:29.985Z,65.20
2018-08-17T17:09:58.474Z,65.30
2018-08-17T17:12:27.355Z,65.00
2018-08-17T17:15:11.628Z,64.90
2018-08-17T17:17:40.185Z,64.80
2018-08-17T17:26:11.668Z,65.30
2018-08-17T17:28:40.277Z,65.50
2018-08-17T17:31:18.880Z,65.70
2018-08-17T17:33:47.447Z,65.80
2018-08-17T17:36:16.010Z,65.70
2018-08-17T17:38:44.462Z,65.70
2018-08-17T17:41:12.909Z,66.20
2018-08-17T17:49:22.689Z,65.60
2018-08-17T17:51:52.562Z,65.40
2018-08-17T17:54:23.010Z,65.40
2018-08-17T17:57:09.061Z,65.60
2018-08-17T17:59:43.242Z,65.90
2018-08-17T18:02:12.009Z,65.80
2018-08-17T18:04:40.532Z,65.90
2018-08-17T18:07:09.939Z,65.90
2018-08-17T18:09:42.053Z,65.80
2018-08-17T19:33:57.756Z,65.80
2018-08-17T19:36:30.071Z,68.20
2018-08-17T19:42:09.900Z,68.40
2018-08-17T20:01:52.741Z,69.00
2018-08-17T20:04:29.209Z,69.20
2018-08-17T20:07:04.010Z,69.30
2018-08-17T20:09:37.671Z,69.50
2018-08-17T20:12:23.675Z,69.40
2018-08-17T20:32:08.224Z,69.90
2018-08-17T20:43:29.693Z,70.30
2018-08-17T20:45:59.695Z,70.30
2018-08-17T20:48:30.928Z,70.60
2018-08-17T20:51:04.604Z,70.90
2018-08-17T20:53:35.190Z,71.50
2018-08-17T20:56:07.508Z,70.90
2018-08-17T20:58:41.281Z,70.90
2018-08-17T21:01:20.186Z,70.20
2018-08-17T21:03:57.081Z,70.90
2018-08-17T21:06:30.841Z,71.10
2018-08-17T21:29:35.425Z,71.50
2018-08-17T21:32:11.726Z,71.80
2018-08-17T22:12:02.460Z,72.40
2018-08-17T22:14:32.485Z,72.30
2018-08-17T22:17:22.994Z,72.40
2018-08-17T22:19:51.688Z,72.40
2018-08-17T23:31:35.718Z,72.60
2018-08-17T23:51:48.332Z,73.60
